N6517L -KSAN
Flight info
| Callsign | N6517L |
|---|---|
| Flight time | N/A |
| Altitude | VFR |
| Route | |
| Aircraft | BE55/L-VGD/C |
Departure
| Time | N/A |
|---|---|
| Airport | - |
Arrival
| Time | 2026-04-24 23:47 |
|---|---|
| Airport | San Diego International Airport (KSAN) |
| Time | Latitude | Longitude | Altitude | Speed | Heading |
|---|---|---|---|---|---|
| 2026-04-24 23:46 | 32.73360 | -117.17899 | 18 ft | 0 kts | 14° |
| 2026-04-24 23:47 | 32.73361 | -117.17898 | 18 ft | 1 kts | 14° |
| 2026-04-24 23:48 | 32.73385 | -117.17907 | 15 ft | 5 kts | 298° |
| 2026-04-24 23:48 | 32.73368 | -117.17939 | 15 ft | 4 kts | 206° |
| 2026-04-24 23:48 | 32.73355 | -117.17946 | 16 ft | 0 kts | 204° |
| 2026-04-24 23:48 | 32.73337 | -117.17951 | 17 ft | 8 kts | 177° |
| 2026-04-24 23:49 | 32.73290 | -117.17885 | 16 ft | 19 kts | 111° |
| 2026-04-24 23:49 | 32.73244 | -117.17714 | 15 ft | 20 kts | 113° |
| 2026-04-24 23:49 | 32.73159 | -117.17619 | 14 ft | 17 kts | 128° |
| 2026-04-24 23:49 | 32.73099 | -117.17549 | 14 ft | 8 kts | 145° |
| 2026-04-24 23:50 | 32.73096 | -117.17546 | 14 ft | 0 kts | 145° |
| 2026-04-24 23:50 | 32.73058 | -117.17532 | 15 ft | 11 kts | 196° |
| 2026-04-24 23:51 | 32.73060 | -117.17745 | 13 ft | 64 kts | 285° |
| 2026-04-24 23:51 | 32.73238 | -117.18495 | 116 ft | 118 kts | 282° |
| 2026-04-24 23:51 | 32.73423 | -117.19528 | 472 ft | 134 kts | 280° |
| 2026-04-24 23:51 | 32.73698 | -117.20678 | 716 ft | 153 kts | 287° |
| 2026-04-24 23:52 | 32.74070 | -117.21849 | 1062 ft | 156 kts | 289° |
| 2026-04-24 23:52 | 32.74733 | -117.22762 | 1396 ft | 143 kts | 332° |
| 2026-04-24 23:52 | 32.75710 | -117.22775 | 1426 ft | 145 kts | 30° |
| 2026-04-24 23:52 | 32.76001 | -117.21796 | 1494 ft | 134 kts | 95° |
| 2026-04-24 23:53 | 32.75885 | -117.20608 | 1232 ft | 146 kts | 103° |
| 2026-04-24 23:53 | 32.75673 | -117.19436 | 1051 ft | 146 kts | 107° |
| 2026-04-24 23:53 | 32.75408 | -117.18327 | 922 ft | 139 kts | 112° |
| 2026-04-24 23:53 | 32.75083 | -117.17294 | 873 ft | 130 kts | 118° |
| 2026-04-24 23:54 | 32.74680 | -117.16371 | 870 ft | 125 kts | 123° |
| 2026-04-24 23:54 | 32.74331 | -117.15444 | 915 ft | 121 kts | 120° |
| 2026-04-24 23:54 | 32.73945 | -117.14569 | 927 ft | 117 kts | 127° |
| 2026-04-24 23:54 | 32.73546 | -117.13678 | 863 ft | 121 kts | 135° |
| 2026-04-24 23:55 | 32.72920 | -117.13442 | 946 ft | 100 kts | 201° |
| 2026-04-24 23:55 | 32.72432 | -117.14040 | 792 ft | 111 kts | 255° |
| 2026-04-24 23:55 | 32.72416 | -117.14942 | 614 ft | 112 kts | 277° |
| 2026-04-24 23:55 | 32.72601 | -117.15856 | 516 ft | 110 kts | 282° |
| 2026-04-24 23:56 | 32.72811 | -117.16704 | 301 ft | 103 kts | 279° |
| 2026-04-24 23:56 | 32.72991 | -117.17502 | 128 ft | 100 kts | 285° |
| 2026-04-24 23:56 | 32.73179 | -117.18260 | 19 ft | 87 kts | 282° |
| 2026-04-24 23:56 | 32.73307 | -117.18880 | 104 ft | 87 kts | 286° |
| 2026-04-24 23:57 | 32.73564 | -117.19702 | 359 ft | 121 kts | 289° |
| 2026-04-24 23:57 | 32.73961 | -117.20688 | 659 ft | 141 kts | 295° |
| 2026-04-24 23:57 | 32.74824 | -117.21049 | 1102 ft | 152 kts | 18° |
| 2026-04-24 23:57 | 32.75081 | -117.19961 | 1303 ft | 164 kts | 106° |
| 2026-04-24 23:58 | 32.74692 | -117.18590 | 1171 ft | 189 kts | 112° |
| 2026-04-24 23:58 | 32.74217 | -117.17105 | 1210 ft | 181 kts | 115° |
| 2026-04-24 23:58 | 32.73842 | -117.15734 | 1100 ft | 170 kts | 115° |
| 2026-04-24 23:58 | 32.73436 | -117.14495 | 1203 ft | 158 kts | 115° |
| 2026-04-24 23:59 | 32.73012 | -117.13323 | 1254 ft | 149 kts | 122° |
| 2026-04-24 23:59 | 32.72396 | -117.12504 | 1321 ft | 117 kts | 179° |
| 2026-04-24 23:59 | 32.71906 | -117.13000 | 1155 ft | 112 kts | 272° |
| 2026-04-24 23:59 | 32.72133 | -117.13902 | 888 ft | 112 kts | 284° |
| 2026-04-25 00:00 | 32.72332 | -117.14760 | 681 ft | 102 kts | 282° |
| 2026-04-25 00:00 | 32.72530 | -117.15554 | 575 ft | 100 kts | 283° |
| 2026-04-25 00:00 | 32.72709 | -117.16343 | 471 ft | 98 kts | 282° |
| 2026-04-25 00:00 | 32.72908 | -117.17104 | 227 ft | 94 kts | 277° |
| 2026-04-25 00:01 | 32.73079 | -117.17825 | 63 ft | 88 kts | 282° |
| 2026-04-25 00:01 | 32.73215 | -117.18448 | 16 ft | 63 kts | 290° |
| 2026-04-25 00:01 | 32.73294 | -117.18725 | 13 ft | 25 kts | 294° |
| 2026-04-25 00:01 | 32.73367 | -117.18814 | 14 ft | 14 kts | 5° |
| 2026-04-25 00:02 | 32.73410 | -117.18719 | 9 ft | 16 kts | 104° |
| 2026-04-25 00:02 | 32.73380 | -117.18586 | 15 ft | 16 kts | 102° |
| 2026-04-25 00:02 | 32.73348 | -117.18464 | 17 ft | 16 kts | 107° |
| 2026-04-25 00:02 | 32.73315 | -117.18327 | 15 ft | 18 kts | 104° |
| 2026-04-25 00:03 | 32.73279 | -117.18179 | 15 ft | 18 kts | 103° |
| 2026-04-25 00:03 | 32.73251 | -117.18064 | 15 ft | 13 kts | 116° |
| 2026-04-25 00:03 | 32.73245 | -117.18048 | 14 ft | 0 kts | 92° |
| 2026-04-25 00:04 | 32.73254 | -117.18010 | 15 ft | 16 kts | 47° |
| 2026-04-25 00:05 | 32.73417 | -117.17933 | 15 ft | 30 kts | 22° |
| 2026-04-25 00:05 | 32.73486 | -117.17896 | 15 ft | 0 kts | 24° |